Time;durP1;ratioP1;P1;durP2;ratioP2;P2;SDS_P1;SDS_P2;PMS_P1;PMS_P2;Temp;Humidity;BMP_temperature;BMP_pressure;BME280_temperature;BME280_humidity;BME280_pressure;Samples;Min_cycle;Max_cycle;Signal;HPM_P1;HPM_P2
2023/05/18 00:03:07;;;;;;;6.10;2.10;;;8.80;99.90;;;;;;10228288;29;20690;-84
2023/05/18 00:08:10;;;;;;;8.57;2.67;;;9.40;99.90;;;;;;10228969;28;20238;-84
2023/05/18 00:13:12;;;;;;;5.27;2.10;;;8.90;99.90;;;;;;10244854;28;20258;-85
2023/05/18 00:18:15;;;;;;;6.70;2.40;;;8.60;99.90;;;;;;10245111;28;20640;-84
2023/05/18 00:23:18;;;;;;;5.90;1.87;;;8.80;99.90;;;;;;10232060;28;20288;-84
2023/05/18 00:28:20;;;;;;;7.43;2.50;;;9.00;99.90;;;;;;10251444;28;20242;-84
2023/05/18 00:33:23;;;;;;;8.30;2.37;;;9.20;99.90;;;;;;10234680;28;20320;-84
2023/05/18 00:38:26;;;;;;;7.10;2.97;;;8.00;99.90;;;;;;10234863;28;20242;-85
2023/05/18 00:43:28;;;;;;;5.83;1.83;;;8.10;99.90;;;;;;10234680;28;20254;-84
2023/05/18 00:48:31;;;;;;;6.17;2.10;;;8.50;99.90;;;;;;10233931;28;20246;-84
2023/05/18 00:53:34;;;;;;;6.00;1.80;;;8.70;99.90;;;;;;10251070;28;20286;-84
2023/05/18 00:58:40;;;;;;;4.43;1.77;;;9.00;99.90;;;;;;10234053;28;20317;-84
2023/05/18 01:03:43;;;;;;;5.00;2.50;;;8.80;99.90;;;;;;10251258;28;20766;-84
2023/05/18 01:08:47;;;;;;;5.50;2.00;;;8.40;99.90;;;;;;10232638;28;20313;-85
2023/05/18 01:14:34;;;;;;;6.37;2.33;;;7.50;99.90;;;;;;10207201;29;20267;-84
2023/05/18 01:19:51;;;;;;;8.57;2.70;;;;;;;;;;10210596;29;20234;-84
2023/05/18 01:25:03;;;;;;;5.13;1.90;;;6.90;99.90;;;;;;10230741;28;20680;-84
2023/05/18 01:30:07;;;;;;;6.37;1.93;;;6.80;99.90;;;;;;10234515;28;20253;-84
2023/05/18 01:35:10;;;;;;;6.97;2.40;;;6.80;99.90;;;;;;10231113;28;20269;-84
2023/05/18 01:40:13;;;;;;;6.67;1.90;;;6.70;99.90;;;;;;10232591;28;20708;-84
2023/05/18 01:45:24;;;;;;;3.60;1.87;;;6.70;99.90;;;;;;10215672;28;20249;-84
2023/05/18 01:50:36;;;;;;;3.67;1.60;;;7.30;99.90;;;;;;10232470;28;20813;-84
2023/05/18 01:55:40;;;;;;;4.87;1.83;;;7.10;99.90;;;;;;10231708;28;20298;-84
2023/05/18 02:00:45;;;;;;;6.10;2.17;;;6.50;99.90;;;;;;10231224;28;20234;-84
2023/05/18 02:05:47;;;;;;;6.07;2.53;;;6.40;99.90;;;;;;10230549;28;20238;-84
2023/05/18 02:10:50;;;;;;;5.50;1.80;;;6.30;99.90;;;;;;10230418;28;20280;-84
2023/05/18 02:15:53;;;;;;;7.73;2.67;;;6.40;99.90;;;;;;10231444;28;20352;-84
2023/05/18 02:20:59;;;;;;;8.70;1.90;;;5.90;99.90;;;;;;10230427;28;20297;-84
2023/05/18 02:26:02;;;;;;;5.57;2.17;;;5.90;99.90;;;;;;10230843;29;20249;-84
2023/05/18 02:31:07;;;;;;;5.30;1.57;;;5.60;99.90;;;;;;10230120;28;20261;-84
2023/05/18 02:36:11;;;;;;;5.83;1.83;;;5.50;99.90;;;;;;10230329;28;20722;-84
2023/05/18 02:41:15;;;;;;;4.70;1.80;;;6.10;99.90;;;;;;10230181;28;20297;-84
2023/05/18 02:46:18;;;;;;;3.23;2.17;;;6.40;99.90;;;;;;10229368;29;20238;-84
2023/05/18 02:51:21;;;;;;;3.57;1.70;;;5.80;99.90;;;;;;10229182;28;20242;-84
2023/05/18 02:56:24;;;;;;;5.07;2.20;;;6.50;99.90;;;;;;10229814;28;20324;-84
2023/05/18 03:01:36;;;;;;;4.70;2.10;;;6.10;99.90;;;;;;10215084;28;20240;-84
2023/05/18 03:06:39;;;;;;;5.20;2.30;;;5.70;99.90;;;;;;10192467;29;20296;-84
2023/05/18 03:11:43;;;;;;;5.43;1.90;;;5.90;99.90;;;;;;10213892;28;20700;-84
2023/05/18 03:16:45;;;;;;;4.27;2.00;;;5.60;99.90;;;;;;10214191;28;20264;-84
2023/05/18 03:21:50;;;;;;;2.60;1.00;;;5.50;99.90;;;;;;10228478;28;20237;-84
2023/05/18 03:26:54;;;;;;;2.60;1.30;;;6.30;99.90;;;;;;10246054;28;20245;-84
2023/05/18 03:31:57;;;;;;;6.47;2.50;;;6.80;99.90;;;;;;10227933;28;20626;-84
2023/05/18 03:37:00;;;;;;;6.50;2.37;;;6.60;99.90;;;;;;10244650;28;20266;-84
2023/05/18 03:42:04;;;;;;;3.77;2.20;;;5.90;99.90;;;;;;10228715;28;20674;-84
2023/05/18 03:47:07;;;;;;;3.53;1.90;;;5.90;99.90;;;;;;10228291;28;20210;-84
2023/05/18 03:52:10;;;;;;;3.10;1.77;;;5.50;99.90;;;;;;10227794;28;20571;-84
2023/05/18 03:57:12;;;;;;;4.57;2.33;;;5.80;99.90;;;;;;10249042;28;20269;-84
2023/05/18 04:02:16;;;;;;;3.13;2.03;;;5.50;99.90;;;;;;10235658;28;20289;-85
2023/05/18 04:07:23;;;;;;;4.23;1.60;;;5.60;99.90;;;;;;10235468;28;20214;-84
2023/05/18 04:12:25;;;;;;;2.50;1.63;;;5.60;99.90;;;;;;10234871;28;20637;-83
2023/05/18 04:17:28;;;;;;;4.63;2.10;;;6.00;99.90;;;;;;10253191;28;20320;-83
2023/05/18 04:22:31;;;;;;;4.33;1.90;;;6.10;99.90;;;;;;10233750;28;20622;-83
2023/05/18 04:27:34;;;;;;;2.93;1.70;;;6.00;99.90;;;;;;10235528;28;20225;-84
2023/05/18 04:32:37;;;;;;;8.17;1.90;;;6.20;99.90;;;;;;10234636;28;20214;-86
2023/05/18 04:37:41;;;;;;;2.77;1.27;;;6.40;99.90;;;;;;10233804;28;20328;-86
2023/05/18 04:42:49;;;;;;;1.87;1.10;;;7.20;99.90;;;;;;10234746;28;20550;-87
2023/05/18 04:47:55;;;;;;;5.57;1.60;;;8.10;99.90;;;;;;10234455;28;20324;-87
2023/05/18 04:53:01;;;;;;;6.10;1.37;;;8.60;99.90;;;;;;10251465;28;20262;-84
2023/05/18 04:58:04;;;;;;;7.00;1.80;;;8.80;99.90;;;;;;10232993;28;20830;-85
2023/05/18 05:03:08;;;;;;;3.53;1.13;;;9.00;99.90;;;;;;10218267;28;20238;-86
2023/05/18 05:08:11;;;;;;;6.03;1.37;;;9.20;99.90;;;;;;10223594;28;20234;-83
2023/05/18 05:13:14;;;;;;;2.50;1.30;;;9.80;99.90;;;;;;10232001;28;20698;-84
2023/05/18 05:18:20;;;;;;;2.83;1.20;;;10.40;99.90;;;;;;10227902;28;20265;-85
2023/05/18 05:23:23;;;;;;;3.90;1.80;;;10.80;99.90;;;;;;10212051;28;20267;-85
2023/05/18 05:28:37;;;;;;;3.00;1.47;;;10.90;99.90;;;;;;10228361;28;20691;-85
2023/05/18 05:33:40;;;;;;;10.70;1.13;;;10.70;99.50;;;;;;10235712;28;20249;-85
2023/05/18 05:38:44;;;;;;;5.33;1.50;;;10.70;97.40;;;;;;10232349;28;20936;-85
2023/05/18 05:43:47;;;;;;;5.00;1.37;;;10.80;96.70;;;;;;10232456;28;20265;-84
2023/05/18 05:48:49;;;;;;;4.20;1.30;;;10.70;97.10;;;;;;10233235;29;20277;-85
2023/05/18 05:53:52;;;;;;;2.87;0.97;;;10.70;98.30;;;;;;10231179;28;20269;-85
2023/05/18 05:58:55;;;;;;;5.50;1.33;;;11.00;98.90;;;;;;10231200;28;20316;-85
2023/05/18 06:03:58;;;;;;;6.97;0.90;;;11.20;94.80;;;;;;10215610;28;20320;-85
2023/05/18 06:09:03;;;;;;;4.47;1.37;;;11.30;95.30;;;;;;10187640;29;20242;-85
2023/05/18 06:14:06;;;;;;;3.63;1.07;;;11.50;97.00;;;;;;10214156;28;20237;-84
2023/05/18 06:19:09;;;;;;;1.83;0.63;;;11.70;94.30;;;;;;10206121;29;20319;-85
2023/05/18 06:24:12;;;;;;;5.33;0.80;;;11.90;93.80;;;;;;10224731;28;20233;-85
2023/05/18 06:29:51;;;;;;;3.83;0.80;;;11.90;92.30;;;;;;10223203;28;20690;-85
2023/05/18 06:35:14;;;;;;;3.00;1.00;;;;;;;;;;10230110;28;20262;-86
2023/05/18 06:40:16;;;;;;;5.37;1.13;;;12.50;90.80;;;;;;10229863;28;20305;-86
2023/05/18 06:45:19;;;;;;;1.57;0.83;;;12.70;79.00;;;;;;10214613;28;20783;-87
2023/05/18 06:50:24;;;;;;;2.33;0.77;;;12.70;83.00;;;;;;10228987;28;20301;-86
2023/05/18 06:55:27;;;;;;;1.10;0.60;;;12.80;87.20;;;;;;10212256;28;20265;-85
2023/05/18 07:00:31;;;;;;;2.40;0.70;;;12.90;85.80;;;;;;10230353;28;20241;-85
2023/05/18 07:05:35;;;;;;;1.53;0.63;;;13.00;71.70;;;;;;10229852;28;20629;-84
2023/05/18 07:10:40;;;;;;;6.27;1.10;;;13.30;90.00;;;;;;10214617;28;20245;-83
2023/05/18 07:15:43;;;;;;;1.53;0.63;;;13.60;78.80;;;;;;10221684;28;20262;-83
2023/05/18 07:20:46;;;;;;;1.10;0.60;;;14.10;84.60;;;;;;10245264;28;20707;-82
2023/05/18 07:25:48;;;;;;;2.80;0.80;;;14.10;71.30;;;;;;10242490;28;20250;-83
2023/05/18 07:30:51;;;;;;;6.30;0.90;;;14.30;57.60;;;;;;10204546;29;20250;-85
2023/05/18 07:35:53;;;;;;;1.63;0.53;;;14.60;48.50;;;;;;10215055;29;20655;-85
2023/05/18 07:40:58;;;;;;;2.67;0.60;;;14.40;44.70;;;;;;10196999;29;20578;-85
2023/05/18 07:46:01;;;;;;;2.23;0.50;;;14.50;45.00;;;;;;10214623;29;20644;-85
2023/05/18 07:51:04;;;;;;;1.13;0.50;;;14.40;45.90;;;;;;10219451;28;20246;-82
2023/05/18 07:56:07;;;;;;;4.13;0.57;;;14.80;50.00;;;;;;10221425;28;20262;-82
2023/05/18 08:01:10;;;;;;;1.57;0.70;;;14.80;48.30;;;;;;10253172;28;20269;-82
2023/05/18 08:06:12;;;;;;;5.10;1.27;;;15.00;42.10;;;;;;10237951;28;20658;-81
2023/05/18 08:11:15;;;;;;;3.70;0.70;;;15.10;42.70;;;;;;10255612;28;20888;-81
2023/05/18 08:16:17;;;;;;;1.23;0.50;;;15.40;50.30;;;;;;10247585;28;20313;-82
2023/05/18 08:21:20;;;;;;;2.30;0.40;;;15.40;46.00;;;;;;10229666;28;20309;-80
2023/05/18 08:26:23;;;;;;;1.23;0.60;;;15.70;46.50;;;;;;10234251;28;20304;-81
2023/05/18 08:31:26;;;;;;;2.37;0.80;;;;;;;;;;10249628;28;20683;-81
2023/05/18 08:36:29;;;;;;;2.40;0.60;;;16.00;42.60;;;;;;10249954;28;20726;-81
2023/05/18 08:41:35;;;;;;;1.95;0.50;;;;;;;;;;10240260;28;20229;-83
2023/05/18 08:46:42;;;;;;;0.80;0.40;;;16.30;47.00;;;;;;10235081;28;20707;-82
2023/05/18 08:51:52;;;;;;;0.35;0.32;;;16.60;42.60;;;;;;10240812;28;20241;-82
2023/05/18 08:56:57;;;;;;;1.37;0.77;;;16.80;43.00;;;;;;10231618;28;20679;-82
2023/05/18 09:02:00;;;;;;;2.53;0.63;;;16.90;41.50;;;;;;10249620;28;20242;-81
2023/05/18 09:07:04;;;;;;;1.95;0.60;;;17.10;44.80;;;;;;10249607;28;20297;-81
2023/05/18 09:12:08;;;;;;;4.18;1.15;;;17.10;36.50;;;;;;10247843;28;20616;-81
2023/05/18 09:17:11;;;;;;;4.10;0.50;;;17.30;40.70;;;;;;10249608;28;20274;-81
2023/05/18 09:22:14;;;;;;;2.13;0.53;;;17.60;43.60;;;;;;10246917;28;20301;-81
2023/05/18 09:27:16;;;;;;;2.30;0.57;;;17.00;32.20;;;;;;10246501;28;20254;-82
2023/05/18 09:32:20;;;;;;;3.03;0.73;;;17.00;40.50;;;;;;10230785;28;20257;-81
2023/05/18 09:37:22;;;;;;;1.25;0.68;;;17.20;37.60;;;;;;10248399;28;20910;-82
2023/05/18 09:42:43;;;;;;;1.02;0.50;;;17.20;42.10;;;;;;10270955;28;20722;-82
2023/05/18 09:47:49;;;;;;;0.90;0.53;;;17.40;44.30;;;;;;10247987;28;20332;-82
2023/05/18 09:52:51;;;;;;;11.43;2.60;;;17.50;44.30;;;;;;10248058;28;20241;-82
2023/05/18 09:57:55;;;;;;;0.90;0.50;;;17.80;40.10;;;;;;10245104;28;20328;-83
2023/05/18 10:02:59;;;;;;;4.63;0.87;;;17.90;36.20;;;;;;10227877;28;20250;-83
2023/05/18 10:08:02;;;;;;;0.83;0.50;;;17.90;40.20;;;;;;10240294;28;20308;-83
2023/05/18 10:13:04;;;;;;;2.03;0.93;;;17.90;40.60;;;;;;10245615;28;20363;-82
2023/05/18 10:18:07;;;;;;;2.30;0.60;;;18.30;53.00;;;;;;10245811;28;20370;-83
2023/05/18 10:23:10;;;;;;;2.60;0.70;;;17.90;37.00;;;;;;10245925;28;20647;-83
2023/05/18 10:28:24;;;;;;;1.27;0.53;;;17.60;36.90;;;;;;10227468;28;20242;-82
2023/05/18 10:33:29;;;;;;;2.27;0.90;;;17.90;40.00;;;;;;10239098;28;20246;-82
2023/05/18 10:38:34;;;;;;;1.40;0.60;;;18.10;32.90;;;;;;10248595;28;20749;-83
2023/05/18 10:43:39;;;;;;;3.55;0.88;;;17.80;36.50;;;;;;10252565;28;20240;-84
2023/05/18 10:48:46;;;;;;;0.82;0.30;;;18.20;33.00;;;;;;10250275;28;20257;-83
2023/05/18 10:53:49;;;;;;;1.70;0.40;;;18.70;42.40;;;;;;10204357;29;20629;-84
2023/05/18 10:58:53;;;;;;;2.60;0.47;;;18.90;39.50;;;;;;10234589;28;20266;-84
2023/05/18 11:03:59;;;;;;;1.03;0.80;;;19.30;40.30;;;;;;10225595;28;20370;-83
2023/05/18 11:09:02;;;;;;;2.20;0.60;;;19.40;29.90;;;;;;10245656;28;20594;-83
2023/05/18 11:14:05;;;;;;;1.15;0.55;;;19.50;30.30;;;;;;10225626;28;20301;-83
2023/05/18 11:19:11;;;;;;;0.60;0.40;;;19.70;37.40;;;;;;10227446;28;20265;-83
2023/05/18 11:24:23;;;;;;;2.00;0.50;;;19.80;32.00;;;;;;10210217;28;20242;-87
2023/05/18 11:29:40;;;;;;;0.82;0.60;;;20.00;35.70;;;;;;10226628;28;20261;-84
2023/05/18 11:34:48;;;;;;;2.60;0.60;;;19.90;34.40;;;;;;10245117;28;20724;-84
2023/05/18 11:39:54;;;;;;;1.10;0.87;;;19.70;36.70;;;;;;10246536;28;20715;-84
2023/05/18 11:45:11;;;;;;;0.43;0.30;;;19.60;42.40;;;;;;10245834;28;20622;-83
2023/05/18 11:50:16;;;;;;;0.40;0.40;;;19.70;55.90;;;;;;10225053;28;20226;-82
2023/05/18 11:55:20;;;;;;;0.80;0.45;;;19.60;45.80;;;;;;10225735;29;20290;-84
2023/05/18 12:00:23;;;;;;;1.30;0.60;;;19.60;34.30;;;;;;10223110;28;20993;-83
2023/05/18 12:05:33;;;;;;;1.45;0.50;;;19.20;29.90;;;;;;10220960;28;20629;-82
2023/05/18 12:10:36;;;;;;;0.80;0.40;;;19.20;43.70;;;;;;10221717;28;20246;-83
2023/05/18 12:15:41;;;;;;;1.57;0.43;;;19.20;42.40;;;;;;10223420;28;20253;-83
2023/05/18 12:20:45;;;;;;;0.60;0.30;;;19.40;51.20;;;;;;10247713;28;20312;-83
2023/05/18 12:25:49;;;;;;;1.85;0.82;;;19.20;54.50;;;;;;10250991;28;20238;-83
2023/05/18 12:30:55;;;;;;;1.23;0.60;;;19.20;31.50;;;;;;10250241;28;20250;-82
2023/05/18 12:35:57;;;;;;;0.90;0.60;;;18.80;29.20;;;;;;10194617;29;20676;-83
2023/05/18 12:41:00;;;;;;;4.63;1.52;;;18.90;35.40;;;;;;10212328;29;20733;-82
2023/05/18 12:46:03;;;;;;;1.40;0.30;;;18.70;27.30;;;;;;10246859;28;20245;-82
2023/05/18 12:51:17;;;;;;;2.17;0.40;;;19.00;32.70;;;;;;10247905;28;20253;-83
2023/05/18 12:56:24;;;;;;;0.32;0.30;;;19.10;30.50;;;;;;10249931;28;20329;-82
2023/05/18 13:01:26;;;;;;;2.03;0.60;;;19.00;28.80;;;;;;10248883;28;20297;-82
2023/05/18 13:06:29;;;;;;;0.60;0.40;;;19.10;29.10;;;;;;10248415;28;20254;-83
2023/05/18 13:11:33;;;;;;;1.15;0.57;;;19.20;29.90;;;;;;10248999;28;20640;-82
2023/05/18 13:16:43;;;;;;;0.68;0.40;;;19.10;28.00;;;;;;10209986;29;20266;-82
2023/05/18 13:21:54;;;;;;;0.75;0.40;;;18.80;31.00;;;;;;10209970;29;20250;-82
2023/05/18 13:26:57;;;;;;;0.90;0.60;;;19.20;27.90;;;;;;10229714;28;20249;-82
2023/05/18 13:31:59;;;;;;;4.03;1.03;;;19.40;29.10;;;;;;10232067;28;20242;-82
2023/05/18 13:37:02;;;;;;;1.35;0.80;;;19.40;28.10;;;;;;10247319;28;20789;-82
2023/05/18 13:42:06;;;;;;;1.25;0.65;;;18.90;23.80;;;;;;10247682;28;20297;-81
2023/05/18 13:47:08;;;;;;;2.25;0.90;;;18.50;26.00;;;;;;10231303;28;20246;-82
2023/05/18 13:52:11;;;;;;;4.97;1.33;;;18.70;25.20;;;;;;10249294;28;20250;-81
2023/05/18 13:57:13;;;;;;;6.37;1.80;;;18.70;24.10;;;;;;10247202;28;20336;-81
2023/05/18 14:02:16;;;;;;;1.30;0.40;;;18.50;26.20;;;;;;10231756;28;20246;-83
2023/05/18 14:07:18;;;;;;;1.92;1.00;;;18.40;25.70;;;;;;10232313;28;20203;-83
2023/05/18 14:12:21;;;;;;;3.03;0.70;;;18.00;25.10;;;;;;10249012;28;20664;-83
2023/05/18 14:17:26;;;;;;;0.80;0.73;;;18.20;25.80;;;;;;10229971;28;20226;-83
2023/05/18 14:22:29;;;;;;;1.97;0.83;;;18.70;24.10;;;;;;10247365;28;20684;-83
2023/05/18 14:27:32;;;;;;;2.63;1.10;;;18.50;26.20;;;;;;10236349;29;20243;-83
2023/05/18 14:32:34;;;;;;;1.53;0.80;;;17.90;25.30;;;;;;10226072;28;20300;-83
2023/05/18 14:37:37;;;;;;;3.83;1.05;;;17.70;23.90;;;;;;10229926;28;20258;-83
2023/05/18 14:42:40;;;;;;;9.90;0.93;;;18.20;20.50;;;;;;10227859;28;20686;-83
2023/05/18 14:47:42;;;;;;;8.65;1.30;;;18.60;23.50;;;;;;10246882;28;20285;-83
2023/05/18 14:52:45;;;;;;;2.42;0.90;;;18.40;24.50;;;;;;10248556;28;20300;-83
2023/05/18 14:57:47;;;;;;;1.00;0.67;;;17.90;23.20;;;;;;10200403;29;20278;-83
2023/05/18 15:02:50;;;;;;;1.03;0.90;;;17.50;25.70;;;;;;10246676;28;20248;-83
2023/05/18 15:07:53;;;;;;;1.60;1.03;;;17.90;25.10;;;;;;10244529;28;20686;-83
2023/05/18 15:12:55;;;;;;;2.17;0.83;;;18.30;24.60;;;;;;10196553;29;20325;-83
2023/05/18 15:17:58;;;;;;;2.30;0.87;;;18.30;23.20;;;;;;10243118;28;20635;-83
2023/05/18 15:23:01;;;;;;;3.97;0.90;;;18.10;24.10;;;;;;10247322;28;20316;-83
2023/05/18 15:28:04;;;;;;;3.27;1.03;;;17.90;25.40;;;;;;10244589;28;20630;-83
2023/05/18 15:33:07;;;;;;;0.97;0.73;;;17.80;24.90;;;;;;10246590;28;20272;-83
2023/05/18 15:38:10;;;;;;;1.17;0.80;;;18.20;26.20;;;;;;10228933;28;20265;-83
2023/05/18 15:43:12;;;;;;;2.20;0.90;;;18.40;21.80;;;;;;10238155;28;20299;-84
2023/05/18 15:48:15;;;;;;;2.80;0.90;;;18.50;22.00;;;;;;10262502;28;20238;-83
2023/05/18 15:53:17;;;;;;;1.05;0.70;;;18.10;22.80;;;;;;10229458;28;20243;-83
2023/05/18 15:58:20;;;;;;;1.70;0.60;;;18.10;30.20;;;;;;10231129;28;20290;-82
2023/05/18 16:03:23;;;;;;;5.87;0.67;;;18.40;29.70;;;;;;10226451;28;20682;-83
2023/05/18 16:08:26;;;;;;;2.67;0.82;;;18.70;27.80;;;;;;10235424;28;20654;-83
2023/05/18 16:13:28;;;;;;;1.98;0.98;;;18.70;26.10;;;;;;10251808;28;20254;-83
2023/05/18 16:18:31;;;;;;;3.30;0.95;;;18.60;26.00;;;;;;10234977;28;20655;-83
2023/05/18 16:23:33;;;;;;;2.57;1.57;;;18.50;27.40;;;;;;10251520;28;20360;-84
2023/05/18 16:28:36;;;;;;;1.92;0.90;;;18.60;25.50;;;;;;10235470;28;20241;-83
2023/05/18 16:33:39;;;;;;;2.67;1.08;;;18.50;25.40;;;;;;10235063;28;20313;-82
2023/05/18 16:38:41;;;;;;;3.00;0.98;;;18.30;27.00;;;;;;10241680;28;21002;-83
2023/05/18 16:43:46;;;;;;;2.85;0.70;;;17.90;28.80;;;;;;10220334;28;20214;-89
2023/05/18 16:48:49;;;;;;;0.90;0.50;;;17.90;29.10;;;;;;10249685;28;20246;-83
2023/05/18 16:53:51;;;;;;;4.20;0.50;;;18.10;32.70;;;;;;10270298;28;20292;-84
2023/05/18 16:58:54;;;;;;;1.73;0.90;;;18.30;35.00;;;;;;10233710;28;20265;-84
2023/05/18 17:03:57;;;;;;;2.88;1.10;;;18.50;30.90;;;;;;10232229;28;20246;-85
2023/05/18 17:09:00;;;;;;;4.57;0.85;;;18.50;29.80;;;;;;10250803;28;20313;-83
2023/05/18 17:14:04;;;;;;;3.65;1.42;;;18.40;31.90;;;;;;10232787;28;20297;-85
2023/05/18 17:19:07;;;;;;;0.80;0.60;;;18.30;27.90;;;;;;10248252;28;20265;-86
2023/05/18 17:24:09;;;;;;;4.18;0.80;;;18.10;33.60;;;;;;10216892;28;20246;-85
2023/05/18 17:29:12;;;;;;;2.85;1.02;;;18.10;30.80;;;;;;10244546;28;20564;-85
2023/05/18 17:34:18;;;;;;;4.95;0.98;;;18.10;29.70;;;;;;10249247;28;20692;-85
2023/05/18 17:39:21;;;;;;;1.13;1.02;;;18.00;30.90;;;;;;10225262;28;20673;-84
2023/05/18 17:44:23;;;;;;;2.60;0.70;;;17.90;30.10;;;;;;10231489;28;20238;-84
2023/05/18 17:49:26;;;;;;;0.95;0.80;;;17.60;33.00;;;;;;10215672;28;20242;-84
2023/05/18 17:54:29;;;;;;;4.72;1.50;;;17.50;33.00;;;;;;10215924;29;20299;-84
2023/05/18 17:59:31;;;;;;;3.08;1.15;;;17.20;31.00;;;;;;10191494;29;20266;-84
2023/05/18 18:04:34;;;;;;;4.25;2.08;;;17.00;37.50;;;;;;10183410;29;20744;-81
2023/05/18 18:09:36;;;;;;;1.67;1.33;;;16.70;33.80;;;;;;10190489;29;20298;-81
2023/05/18 18:14:39;;;;;;;3.72;1.50;;;16.40;38.60;;;;;;10180295;29;20242;-81
2023/05/18 18:19:41;;;;;;;6.70;1.98;;;16.10;39.50;;;;;;10185788;29;20293;-84
2023/05/18 18:24:44;;;;;;;6.90;1.55;;;15.40;44.20;;;;;;10207056;29;20759;-83
2023/05/18 18:29:47;;;;;;;7.22;1.60;;;14.50;56.60;;;;;;10192160;29;20238;-82
2023/05/18 18:34:50;;;;;;;5.38;1.35;;;14.40;56.90;;;;;;10206161;29;20305;-82
2023/05/18 18:39:53;;;;;;;4.83;1.07;;;14.40;60.20;;;;;;10175397;29;20263;-83
2023/05/18 18:44:55;;;;;;;8.77;1.23;;;14.10;64.50;;;;;;10168174;29;20993;-84
2023/05/18 18:49:58;;;;;;;7.23;1.37;;;13.90;68.50;;;;;;10189336;29;20294;-86
2023/05/18 18:55:00;;;;;;;2.47;1.00;;;13.70;74.90;;;;;;10187335;29;20340;-84
2023/05/18 19:00:09;;;;;;;2.20;1.13;;;13.10;82.00;;;;;;10206253;29;20270;-84
2023/05/18 19:05:12;;;;;;;5.03;1.13;;;13.00;84.40;;;;;;10182759;29;20293;-84
2023/05/18 19:10:15;;;;;;;4.28;1.30;;;13.00;93.50;;;;;;10167676;29;20785;-83
2023/05/18 19:15:20;;;;;;;6.53;1.40;;;13.20;94.00;;;;;;10183132;29;20637;-82
2023/05/18 19:20:22;;;;;;;2.57;0.90;;;12.90;93.50;;;;;;10190819;29;20290;-82
2023/05/18 19:25:25;;;;;;;5.50;1.63;;;;;;;;;;10189582;29;20234;-84
2023/05/18 19:30:28;;;;;;;4.70;1.03;;;12.20;94.60;;;;;;10200859;29;20707;-85
2023/05/18 19:35:31;;;;;;;2.10;1.00;;;12.30;96.40;;;;;;10202694;29;20243;-86
2023/05/18 19:40:34;;;;;;;1.67;1.10;;;12.20;95.80;;;;;;10202155;29;20711;-85
2023/05/18 19:45:36;;;;;;;5.13;1.20;;;12.20;96.90;;;;;;10185643;29;20890;-84
2023/05/18 19:50:39;;;;;;;8.43;1.97;;;12.00;97.10;;;;;;10186468;29;20298;-85
2023/05/18 19:55:42;;;;;;;9.00;1.77;;;11.60;98.70;;;;;;10188276;29;20309;-88
2023/05/18 20:00:44;;;;;;;4.03;2.00;;;11.30;99.90;;;;;;10206992;29;20802;-86
2023/05/18 20:05:48;;;;;;;1.70;1.27;;;;;;;;;;10187341;29;20243;-83
2023/05/18 20:10:52;;;;;;;1.87;1.37;;;10.90;99.90;;;;;;10216380;28;20296;-83
2023/05/18 20:15:57;;;;;;;5.37;1.90;;;10.80;99.90;;;;;;10193763;29;20254;-84
2023/05/18 20:21:00;;;;;;;5.30;2.90;;;10.90;99.90;;;;;;10206424;29;20262;-84
2023/05/18 20:26:04;;;;;;;7.37;2.33;;;10.80;99.90;;;;;;10204859;29;20242;-84
2023/05/18 20:31:07;;;;;;;3.07;1.97;;;10.70;99.90;;;;;;10189244;29;20313;-84
2023/05/18 20:36:10;;;;;;;14.40;3.13;;;11.00;99.90;;;;;;10189046;29;20297;-84
2023/05/18 20:41:16;;;;;;;16.13;3.37;;;10.90;99.90;;;;;;10214146;28;20736;-84
2023/05/18 20:46:23;;;;;;;6.25;3.17;;;10.70;99.90;;;;;;10212113;29;20298;-84
2023/05/18 20:51:26;;;;;;;5.53;2.73;;;10.70;99.90;;;;;;10210998;29;20278;-83
2023/05/18 20:56:29;;;;;;;7.93;3.43;;;11.10;99.90;;;;;;10211730;29;20311;-85
2023/05/18 21:01:37;;;;;;;2.80;2.03;;;11.30;99.90;;;;;;10194197;29;20284;-85
2023/05/18 21:06:42;;;;;;;2.90;1.93;;;11.60;99.90;;;;;;10190090;29;20306;-86
2023/05/18 21:11:45;;;;;;;7.37;3.03;;;11.80;99.90;;;;;;10211418;29;20302;-84
2023/05/18 21:16:48;;;;;;;2.47;1.40;;;12.00;99.90;;;;;;10217667;28;20282;-85
2023/05/18 21:21:50;;;;;;;2.90;1.47;;;12.10;99.90;;;;;;10211174;29;20274;-85
2023/05/18 21:26:54;;;;;;;2.60;1.20;;;12.20;99.90;;;;;;10210444;29;20251;-85
2023/05/18 21:31:56;;;;;;;6.60;1.80;;;12.40;99.90;;;;;;10210251;29;20258;-84
2023/05/18 21:37:00;;;;;;;2.17;1.20;;;12.50;97.40;;;;;;10210893;29;20305;-85
2023/05/18 21:42:02;;;;;;;3.07;1.57;;;12.40;99.60;;;;;;10209763;29;20270;-83
2023/05/18 21:47:05;;;;;;;3.20;0.63;;;12.30;97.30;;;;;;10205626;29;20238;-84
2023/05/18 21:52:08;;;;;;;1.35;0.73;;;12.20;99.90;;;;;;10205206;29;20293;-85
2023/05/18 21:57:11;;;;;;;1.90;1.07;;;12.20;99.60;;;;;;10209204;29;20271;-84
2023/05/18 22:02:13;;;;;;;3.97;1.10;;;12.10;98.00;;;;;;10206860;29;20400;-85
2023/05/18 22:07:16;;;;;;;3.83;1.47;;;11.90;97.90;;;;;;10206463;29;20242;-84
2023/05/18 22:12:20;;;;;;;1.87;1.10;;;12.00;96.80;;;;;;10206673;29;20247;-84
2023/05/18 22:17:22;;;;;;;1.67;0.67;;;11.90;98.40;;;;;;10207895;29;20239;-84
2023/05/18 22:22:25;;;;;;;1.87;0.97;;;11.70;99.00;;;;;;10206036;29;20270;-84
2023/05/18 22:27:35;;;;;;;2.37;1.17;;;11.60;99.10;;;;;;10204812;29;20633;-86
2023/05/18 22:32:37;;;;;;;2.70;1.10;;;11.50;98.70;;;;;;10206502;29;20242;-86
2023/05/18 22:37:40;;;;;;;3.60;0.80;;;11.10;99.00;;;;;;10189852;29;20680;-86
2023/05/18 22:42:43;;;;;;;1.83;1.17;;;11.10;99.90;;;;;;10206925;29;20306;-86
2023/05/18 22:47:46;;;;;;;1.93;0.77;;;11.20;99.30;;;;;;10204714;29;20246;-86
2023/05/18 22:52:49;;;;;;;2.90;2.17;;;11.10;99.30;;;;;;10204982;29;20239;-86
2023/05/18 22:57:52;;;;;;;4.20;1.27;;;11.00;99.40;;;;;;10169508;29;1098403;-86
2023/05/18 23:02:55;;;;;;;1.50;1.03;;;10.80;99.30;;;;;;10190333;29;20262;-86
2023/05/18 23:07:58;;;;;;;2.20;1.07;;;10.70;99.90;;;;;;10189428;29;20704;-86
2023/05/18 23:13:00;;;;;;;1.47;0.90;;;10.70;99.90;;;;;;10206963;29;20306;-86
2023/05/18 23:18:07;;;;;;;0.80;0.80;;;10.60;99.90;;;;;;10205938;29;20241;-86
2023/05/18 23:23:10;;;;;;;1.37;0.87;;;10.80;99.90;;;;;;10207496;29;20317;-83
2023/05/18 23:28:13;;;;;;;3.50;1.50;;;11.00;99.90;;;;;;10207123;29;20703;-83
2023/05/18 23:33:16;;;;;;;1.00;0.70;;;11.00;99.90;;;;;;10166221;29;20697;-86
2023/05/18 23:38:27;;;;;;;2.63;1.20;;;11.10;99.90;;;;;;10151502;29;20235;-86
2023/05/18 23:43:30;;;;;;;2.80;1.10;;;11.00;99.90;;;;;;10205353;29;20231;-85
2023/05/18 23:48:32;;;;;;;1.80;0.70;;;10.70;99.90;;;;;;10188361;29;20242;-86
2023/05/18 23:53:36;;;;;;;1.63;1.10;;;10.40;99.90;;;;;;10206027;29;20238;-86
2023/05/18 23:58:43;;;;;;;3.23;1.00;;;10.30;99.90;;;;;;10205595;29;20269;-86
